Three Notch, Alabama
Current Conditions -  °F | °C
As of 5:58 PM on Sunday 23 Nov 2014 (Local Time) from KEUF Reporting Station
Broken Clouds Broken Clouds  
Wind Chill: 64°   Ceiling: 2000
Heat Index: 64°   Visibility: 10mi
Dew Point: 60°   Wind: 10mph
Humidity: 87%   Direction: 210°SSW
Pressure: 29.74"   Gusts: 16mph
Location:  32.1076°N, 85.5256°W
Report Text: KEUF 232358Z AUTO 21009G14KT 10SM BKN020 18/16 A2974 RMK AO2 SLP068 60048 T01780156 10222 20172 53006 $
Loading
Personal Weather Stations






























Interactive Weather Map New forecast layout! Learn more

10-Day Weather Forecast

Advertisements
Track Severe Weather on mobile